Time;durP1;ratioP1;P1;durP2;ratioP2;P2;SDS_P1;SDS_P2;PMS_P1;PMS_P2;Temp;Humidity;BMP_temperature;BMP_pressure;BME280_temperature;BME280_humidity;BME280_pressure;Samples;Min_cycle;Max_cycle;Signal;HPM_P1;HPM_P2
2023/06/15 00:00:47;;;;;;;3.70;2.80;;;20.00;71.00;;;;;;5050627;28;20025;-81
2023/06/15 00:03:15;;;;;;;5.65;3.17;;;19.90;70.70;;;;;;5047166;28;20033;-81
2023/06/15 00:05:40;;;;;;;9.98;3.35;;;19.90;71.50;;;;;;5032448;28;20037;-80
2023/06/15 00:08:06;;;;;;;2.90;2.70;;;19.90;71.40;;;;;;5050392;28;20518;-81
2023/06/15 00:10:31;;;;;;;7.43;2.90;;;19.90;71.40;;;;;;5050261;28;20023;-80
2023/06/15 00:12:59;;;;;;;3.20;2.65;;;19.90;71.80;;;;;;5048782;28;20112;-79
2023/06/15 00:15:27;;;;;;;4.38;2.97;;;19.90;71.90;;;;;;5047144;28;20024;-80
2023/06/15 00:17:55;;;;;;;6.07;2.97;;;19.80;72.10;;;;;;5049414;28;20369;-81
2023/06/15 00:20:28;;;;;;;3.70;3.03;;;19.80;72.20;;;;;;5048280;28;20116;-80
2023/06/15 00:22:55;;;;;;;;;;;19.80;72.30;;;;;;5049971;28;20029;-78
2023/06/15 00:25:21;;;;;;;8.18;3.28;;;19.80;72.30;;;;;;5048106;28;20431;-78
2023/06/15 00:27:47;;;;;;;3.92;3.55;;;19.70;72.60;;;;;;5048449;28;20513;-81
2023/06/15 00:30:13;;;;;;;3.30;3.10;;;19.70;72.60;;;;;;5048104;28;20119;-81
2023/06/15 00:32:38;;;;;;;8.15;3.67;;;19.60;72.80;;;;;;5055881;28;20093;-77
2023/06/15 00:35:04;;;;;;;6.60;3.28;;;19.60;73.00;;;;;;5052349;28;20032;-78
2023/06/15 00:37:30;;;;;;;6.18;3.38;;;19.60;74.00;;;;;;5046422;28;20031;-78
2023/06/15 00:39:56;;;;;;;6.65;3.63;;;19.50;73.10;;;;;;5046085;28;20036;-77
2023/06/15 00:42:21;;;;;;;6.57;3.30;;;19.50;73.30;;;;;;5053916;28;20020;-78
2023/06/15 00:44:47;;;;;;;6.57;3.55;;;19.50;73.70;;;;;;5043534;28;20068;-80
2023/06/15 00:47:17;;;;;;;8.80;3.72;;;19.40;73.90;;;;;;5050179;28;20025;-81
2023/06/15 00:49:44;;;;;;;4.45;3.33;;;19.40;74.10;;;;;;5046724;28;20143;-78
2023/06/15 00:52:11;;;;;;;6.65;3.83;;;19.30;74.40;;;;;;5049562;28;20423;-78
2023/06/15 00:54:40;;;;;;;4.40;3.17;;;19.30;74.50;;;;;;5044194;28;20021;-78
2023/06/15 00:57:06;;;;;;;4.13;3.72;;;19.20;74.60;;;;;;5049079;28;20017;-78
2023/06/15 00:59:33;;;;;;;8.68;3.80;;;19.20;74.70;;;;;;5051128;28;20036;-81
2023/06/15 01:01:58;;;;;;;7.30;3.95;;;19.20;75.00;;;;;;5049175;28;20024;-80
2023/06/15 01:04:24;;;;;;;9.68;4.50;;;19.10;75.20;;;;;;5046358;28;20024;-81
2023/06/15 01:06:56;;;;;;;4.72;3.55;;;19.10;75.30;;;;;;5045872;28;20022;-77
2023/06/15 01:09:23;;;;;;;4.90;3.43;;;19.10;75.40;;;;;;5044716;28;20029;-78
2023/06/15 01:11:58;;;;;;;5.35;3.28;;;19.10;75.50;;;;;;5051046;28;20044;-81
2023/06/15 01:14:26;;;;;;;6.95;4.15;;;19.00;75.60;;;;;;5050026;28;21047;-81
2023/06/15 01:16:57;;;;;;;5.15;4.30;;;19.10;75.80;;;;;;5039494;28;20040;-78
2023/06/15 01:19:54;;;;;;;6.97;4.03;;;19.00;76.40;;;;;;5043412;28;20098;-81
2023/06/15 01:22:41;;;;;;;5.45;4.20;;;19.00;76.00;;;;;;5048660;28;20020;-80
2023/06/15 01:25:15;;;;;;;5.97;3.92;;;18.90;75.60;;;;;;5042608;28;20037;-80
2023/06/15 01:27:42;;;;;;;5.03;3.95;;;18.90;76.30;;;;;;5046748;28;20025;-80
2023/06/15 01:30:09;;;;;;;4.88;3.72;;;18.90;76.30;;;;;;5031587;28;20476;-80
2023/06/15 01:32:35;;;;;;;5.07;3.65;;;18.90;76.10;;;;;;5038402;28;20031;-80
2023/06/15 01:35:01;;;;;;;7.00;3.88;;;18.80;76.50;;;;;;5049224;28;20265;-81
2023/06/15 01:37:27;;;;;;;14.23;4.30;;;18.80;76.30;;;;;;5066864;28;22175;-80
2023/06/15 01:39:53;;;;;;;5.10;4.47;;;18.80;76.60;;;;;;5058409;28;20040;-80
2023/06/15 01:42:19;;;;;;;7.40;4.68;;;18.70;77.00;;;;;;5047552;28;20033;-78
2023/06/15 01:44:47;;;;;;;7.78;4.35;;;18.80;76.80;;;;;;5051423;28;20041;-81
2023/06/15 01:47:12;;;;;;;7.63;4.15;;;18.80;77.00;;;;;;5049926;28;20036;-81
2023/06/15 01:49:40;;;;;;;4.47;4.10;;;18.70;77.20;;;;;;5049317;28;20024;-80
2023/06/15 01:52:06;;;;;;;9.73;4.15;;;18.70;77.30;;;;;;5044050;28;20116;-81
2023/06/15 01:54:31;;;;;;;7.47;4.22;;;18.70;77.00;;;;;;5044576;28;20033;-81
2023/06/15 01:56:57;;;;;;;5.95;4.10;;;18.70;76.80;;;;;;5049077;28;20043;-81
2023/06/15 01:59:23;;;;;;;10.52;4.40;;;18.70;77.40;;;;;;5047420;28;20032;-80
2023/06/15 02:01:48;;;;;;;7.95;4.07;;;18.70;77.20;;;;;;5044560;28;20521;-81
2023/06/15 02:04:14;;;;;;;14.10;4.82;;;18.70;77.20;;;;;;5045345;28;20021;-80
2023/06/15 02:06:39;;;;;;;7.45;4.95;;;18.70;77.40;;;;;;5047075;28;20029;-81
2023/06/15 02:09:05;;;;;;;8.20;4.72;;;18.60;77.70;;;;;;5050314;28;20410;-81
2023/06/15 02:11:31;;;;;;;5.32;4.72;;;18.60;77.70;;;;;;5046354;28;20025;-80
2023/06/15 02:13:59;;;;;;;10.00;4.70;;;18.60;77.70;;;;;;5038946;28;20029;-81
2023/06/15 02:16:26;;;;;;;10.45;4.57;;;18.60;77.80;;;;;;5044579;28;20155;-81
2023/06/15 02:18:52;;;;;;;5.85;4.75;;;18.60;78.00;;;;;;5046796;28;20063;-78
2023/06/15 02:21:19;;;;;;;6.13;4.93;;;18.60;77.90;;;;;;5147266;23;20049;-79
2023/06/15 02:23:45;;;;;;;10.63;5.18;;;18.50;78.10;;;;;;5013220;28;20052;-80
2023/06/15 02:26:13;;;;;;;11.55;5.45;;;18.50;78.10;;;;;;5012614;28;20018;-80
2023/06/15 02:28:39;;;;;;;9.10;5.00;;;18.50;78.40;;;;;;5009721;28;20022;-80
2023/06/15 02:31:04;;;;;;;7.10;5.03;;;18.50;78.40;;;;;;5012380;28;20025;-80
2023/06/15 02:33:31;;;;;;;13.75;5.32;;;18.50;78.50;;;;;;5008453;28;20034;-79
2023/06/15 02:35:58;;;;;;;9.85;5.75;;;18.40;78.70;;;;;;5029875;28;20038;-79
2023/06/15 02:38:24;;;;;;;6.53;5.82;;;18.40;78.90;;;;;;5018772;28;20041;-79
2023/06/15 02:40:51;;;;;;;15.68;5.60;;;18.40;78.90;;;;;;5013247;28;20017;-80
2023/06/15 02:43:17;;;;;;;9.05;5.78;;;18.40;78.90;;;;;;5009265;28;20427;-80
2023/06/15 02:45:42;;;;;;;9.43;5.35;;;18.40;79.10;;;;;;5013083;28;20049;-80
2023/06/15 02:48:08;;;;;;;6.50;5.70;;;18.30;78.90;;;;;;5027679;28;20030;-79
2023/06/15 02:50:36;;;;;;;12.35;5.70;;;18.30;79.20;;;;;;5008487;28;20640;-80
2023/06/15 02:53:01;;;;;;;6.47;5.85;;;18.30;79.00;;;;;;5020934;28;20553;-79
2023/06/15 02:55:27;;;;;;;6.43;4.97;;;18.20;79.70;;;;;;5013801;28;20109;-80
2023/06/15 02:57:53;;;;;;;10.05;5.85;;;18.10;79.90;;;;;;5013689;28;20030;-79
2023/06/15 03:00:19;;;;;;;8.70;5.97;;;18.10;79.90;;;;;;5012347;28;20113;-79
2023/06/15 03:02:44;;;;;;;6.00;4.70;;;18.00;80.10;;;;;;5016968;28;20092;-78
2023/06/15 03:05:11;;;;;;;12.80;5.70;;;18.00;81.00;;;;;;5148210;23;20045;-80
2023/06/15 03:07:36;;;;;;;11.13;5.93;;;17.90;81.40;;;;;;5021430;28;20053;-81
2023/06/15 03:10:02;;;;;;;8.55;5.25;;;17.80;81.10;;;;;;5029091;28;20065;-81
2023/06/15 03:12:30;;;;;;;9.20;5.40;;;17.80;81.40;;;;;;5017766;28;20021;-81
2023/06/15 03:14:56;;;;;;;9.27;5.07;;;17.80;81.50;;;;;;5017891;28;20039;-81
2023/06/15 03:17:24;;;;;;;7.68;5.80;;;17.70;81.60;;;;;;5016365;28;20021;-80
2023/06/15 03:19:50;;;;;;;7.95;5.93;;;17.70;82.20;;;;;;5017156;28;20037;-80
2023/06/15 03:22:17;;;;;;;13.50;5.57;;;17.80;82.50;;;;;;5017630;28;20040;-80
2023/06/15 03:24:43;;;;;;;10.88;6.05;;;17.80;82.10;;;;;;5014730;28;20025;-81
2023/06/15 03:27:13;;;;;;;9.85;6.45;;;17.80;82.30;;;;;;5018577;28;20022;-80
2023/06/15 03:29:39;;;;;;;8.82;6.00;;;17.80;82.20;;;;;;5015450;28;20029;-81
2023/06/15 03:32:06;;;;;;;11.55;5.45;;;17.80;81.90;;;;;;5016305;28;20030;-80
2023/06/15 03:34:32;;;;;;;8.02;5.70;;;17.90;81.70;;;;;;5017161;28;20124;-81
2023/06/15 03:36:57;;;;;;;8.10;5.90;;;17.90;81.90;;;;;;5015999;28;20593;-80
2023/06/15 03:39:23;;;;;;;12.63;6.00;;;17.90;82.10;;;;;;5019346;28;20061;-81
2023/06/15 03:41:49;;;;;;;12.45;5.32;;;17.90;82.20;;;;;;5022469;28;20060;-80
2023/06/15 03:44:14;;;;;;;8.52;5.95;;;17.90;82.20;;;;;;5035940;28;20059;-79
2023/06/15 03:46:44;;;;;;;12.00;6.20;;;17.90;82.10;;;;;;5012888;28;20447;-80
2023/06/15 03:49:13;;;;;;;11.57;6.13;;;17.90;82.40;;;;;;5018219;28;20022;-81
2023/06/15 03:51:41;;;;;;;9.82;6.22;;;17.90;81.90;;;;;;5015317;28;20030;-81
2023/06/15 03:54:06;;;;;;;6.90;6.07;;;17.80;82.30;;;;;;5016478;28;20018;-79
2023/06/15 03:56:32;;;;;;;9.25;5.78;;;17.80;82.40;;;;;;5016067;28;20076;-80
2023/06/15 03:58:58;;;;;;;7.03;6.15;;;17.90;82.40;;;;;;5015945;28;20084;-81
2023/06/15 04:01:24;;;;;;;10.95;5.57;;;17.90;82.10;;;;;;5015962;28;20559;-81
2023/06/15 04:03:51;;;;;;;11.23;6.00;;;17.90;82.30;;;;;;5015099;28;20055;-81
2023/06/15 04:06:16;;;;;;;10.27;6.18;;;17.90;82.90;;;;;;5018127;28;20879;-81
2023/06/15 04:08:43;;;;;;;7.72;6.38;;;17.80;82.90;;;;;;5013966;28;20401;-81
2023/06/15 04:11:09;;;;;;;10.25;5.93;;;17.90;83.60;;;;;;5016981;28;20547;-79
2023/06/15 04:13:35;;;;;;;8.13;6.20;;;17.90;83.30;;;;;;5017467;28;20057;-81
2023/06/15 04:16:01;;;;;;;7.75;5.28;;;17.90;84.50;;;;;;5012841;28;20029;-78
2023/06/15 04:18:27;;;;;;;8.52;5.63;;;17.90;84.60;;;;;;5016608;28;20120;-77
2023/06/15 04:20:53;;;;;;;9.13;5.32;;;17.90;84.80;;;;;;5012546;28;20059;-78
2023/06/15 04:23:18;;;;;;;8.38;5.45;;;17.80;85.10;;;;;;5013849;28;20121;-77
2023/06/15 04:25:45;;;;;;;8.25;5.57;;;17.70;85.00;;;;;;5014135;28;20516;-78
2023/06/15 04:28:12;;;;;;;13.27;6.72;;;17.80;85.20;;;;;;5013682;28;20018;-78
2023/06/15 04:30:44;;;;;;;9.30;6.25;;;17.90;85.30;;;;;;5015612;28;20024;-77
2023/06/15 04:33:13;;;;;;;10.23;6.40;;;18.00;85.10;;;;;;5015243;28;20346;-77
2023/06/15 04:35:45;;;;;;;13.68;6.25;;;18.00;84.50;;;;;;5016518;28;20060;-76
2023/06/15 04:38:14;;;;;;;10.88;5.72;;;18.00;83.90;;;;;;5015828;28;20038;-77
2023/06/15 04:40:41;;;;;;;11.60;6.00;;;18.20;83.60;;;;;;5015290;28;20092;-76
2023/06/15 04:43:08;;;;;;;9.75;6.50;;;18.30;83.10;;;;;;5018374;28;20044;-76
2023/06/15 04:45:34;;;;;;;9.15;6.32;;;18.40;83.50;;;;;;5013571;28;20026;-77
2023/06/15 04:48:00;;;;;;;8.57;5.85;;;18.60;82.10;;;;;;5014887;28;20438;-79
2023/06/15 04:50:26;;;;;;;9.50;6.50;;;18.60;81.40;;;;;;5013469;28;20021;-77
2023/06/15 04:52:51;;;;;;;12.15;6.43;;;18.70;81.10;;;;;;5012473;28;20165;-79
2023/06/15 04:55:17;;;;;;;9.35;6.78;;;18.70;80.90;;;;;;5015621;28;20021;-77
2023/06/15 04:57:43;;;;;;;11.10;6.47;;;18.80;80.70;;;;;;5014299;28;20021;-80
2023/06/15 05:00:10;;;;;;;9.73;6.40;;;19.00;80.30;;;;;;5014609;28;20108;-79
2023/06/15 05:02:36;;;;;;;11.18;6.97;;;19.10;79.80;;;;;;5012769;28;20017;-77
2023/06/15 05:05:02;;;;;;;8.45;6.32;;;19.20;79.50;;;;;;5017230;28;20452;-77
2023/06/15 05:07:28;;;;;;;11.07;6.93;;;19.20;79.30;;;;;;5045846;28;20040;-78
2023/06/15 05:09:55;;;;;;;14.90;6.90;;;19.30;79.30;;;;;;5045403;28;20014;-78
2023/06/15 05:12:20;;;;;;;9.13;6.13;;;19.30;79.20;;;;;;5040464;28;20089;-78
2023/06/15 05:14:46;;;;;;;12.00;6.55;;;19.30;78.80;;;;;;5029076;28;20076;-78
2023/06/15 05:17:12;;;;;;;7.45;6.57;;;19.40;78.60;;;;;;5012408;28;20848;-78
2023/06/15 05:19:38;;;;;;;12.20;7.30;;;19.50;78.70;;;;;;5015469;28;20272;-77
2023/06/15 05:22:05;;;;;;;12.48;7.22;;;19.50;78.30;;;;;;5029152;28;20033;-77
2023/06/15 05:24:30;;;;;;;10.75;6.47;;;19.60;78.10;;;;;;5012141;28;20044;-77
2023/06/15 05:26:56;;;;;;;12.32;6.57;;;19.70;78.10;;;;;;5013298;28;20033;-78
2023/06/15 05:29:22;;;;;;;13.13;7.15;;;19.70;77.80;;;;;;5012417;28;20025;-78
2023/06/15 05:31:48;;;;;;;12.07;6.85;;;19.90;77.50;;;;;;5012589;28;20038;-78
2023/06/15 05:34:14;;;;;;;14.40;7.35;;;19.90;77.40;;;;;;5013264;28;20044;-79
2023/06/15 05:36:43;;;;;;;11.98;7.35;;;20.00;77.80;;;;;;5011452;28;20057;-78
2023/06/15 05:39:10;;;;;;;11.20;6.55;;;20.00;77.70;;;;;;5014114;28;20076;-77
2023/06/15 05:41:35;;;;;;;11.32;7.30;;;20.00;77.50;;;;;;5011942;28;20048;-78
2023/06/15 05:44:03;;;;;;;15.90;7.20;;;20.10;77.50;;;;;;5010888;28;20020;-76
2023/06/15 05:46:29;;;;;;;16.58;6.70;;;20.20;77.40;;;;;;5015103;28;20059;-77
2023/06/15 05:48:55;;;;;;;13.68;6.85;;;20.30;77.30;;;;;;5027536;28;20018;-77
2023/06/15 05:51:20;;;;;;;10.65;6.68;;;20.40;76.80;;;;;;5014157;28;20119;-77
2023/06/15 05:53:46;;;;;;;10.13;6.80;;;20.30;76.40;;;;;;5015545;28;20023;-77
2023/06/15 05:56:12;;;;;;;8.88;6.15;;;20.40;76.20;;;;;;5011177;28;20108;-76
2023/06/15 05:58:38;;;;;;;12.68;6.63;;;20.40;76.10;;;;;;5013028;28;20500;-77
2023/06/15 06:01:04;;;;;;;11.65;6.90;;;20.50;76.00;;;;;;5013726;28;20029;-76
2023/06/15 06:03:29;;;;;;;15.38;7.35;;;20.60;76.40;;;;;;5016157;28;20029;-78
2023/06/15 06:05:57;;;;;;;13.25;6.75;;;20.60;76.40;;;;;;5012555;28;20620;-77
2023/06/15 06:08:23;;;;;;;16.20;6.80;;;20.70;76.10;;;;;;5012398;28;20025;-79
2023/06/15 06:10:49;;;;;;;11.20;6.68;;;20.80;76.30;;;;;;5010683;28;20109;-76
2023/06/15 06:13:15;;;;;;;16.67;6.30;;;21.00;75.60;;;;;;5012243;28;20113;-76
2023/06/15 06:15:41;;;;;;;11.23;6.55;;;21.10;74.80;;;;;;5010761;28;20041;-76
2023/06/15 06:18:06;;;;;;;12.05;6.30;;;21.10;74.50;;;;;;5013991;28;20667;-75
2023/06/15 06:20:32;;;;;;;16.65;6.88;;;21.30;74.40;;;;;;5013585;28;20485;-76
2023/06/15 06:22:58;;;;;;;9.27;6.60;;;21.40;74.30;;;;;;5013143;28;20539;-77
2023/06/15 06:25:23;;;;;;;11.07;5.95;;;21.60;73.80;;;;;;5014107;28;20916;-76
2023/06/15 06:27:49;;;;;;;9.50;6.10;;;21.60;73.60;;;;;;5011775;28;20056;-83
2023/06/15 06:30:14;;;;;;;14.75;6.35;;;21.70;73.30;;;;;;5022148;28;20406;-80
2023/06/15 06:32:42;;;;;;;12.20;5.85;;;21.80;73.00;;;;;;5029740;28;20030;-77
2023/06/15 06:35:08;;;;;;;17.98;6.95;;;21.90;72.70;;;;;;5013722;28;20029;-77
2023/06/15 06:37:33;;;;;;;10.77;7.20;;;22.00;72.30;;;;;;5016145;28;20488;-78
2023/06/15 06:39:59;;;;;;;15.45;6.70;;;22.00;71.50;;;;;;5012816;28;20894;-78
2023/06/15 06:42:25;;;;;;;27.83;13.68;;;22.10;71.40;;;;;;5013148;28;20018;-78
2023/06/15 06:44:51;;;;;;;455.75;234.05;;;22.20;71.30;;;;;;5017624;28;20420;-77
2023/06/15 06:47:19;;;;;;;14.50;6.50;;;22.40;71.10;;;;;;5016059;28;20285;-77
2023/06/15 06:49:47;;;;;;;13.00;6.55;;;22.40;71.00;;;;;;5019522;28;20094;-77
2023/06/15 06:52:13;;;;;;;15.05;6.28;;;22.50;70.60;;;;;;5017190;28;20700;-77
2023/06/15 06:54:38;;;;;;;11.95;7.15;;;22.60;70.20;;;;;;5019219;28;20028;-77
2023/06/15 06:57:06;;;;;;;10.45;6.95;;;22.60;70.60;;;;;;5020143;28;20068;-77
2023/06/15 06:59:32;;;;;;;12.45;6.80;;;22.70;71.30;;;;;;5019287;28;20037;-77
2023/06/15 07:01:58;;;;;;;13.68;7.35;;;22.70;70.80;;;;;;5020088;28;20025;-79
2023/06/15 07:04:23;;;;;;;10.07;7.78;;;22.90;70.90;;;;;;5019999;28;20036;-79
2023/06/15 07:06:49;;;;;;;9.90;6.60;;;23.10;71.10;;;;;;5019070;28;20409;-80
2023/06/15 07:09:14;;;;;;;46.15;18.70;;;23.20;70.60;;;;;;5019183;28;20091;-80
2023/06/15 07:11:40;;;;;;;19.95;7.70;;;23.30;70.60;;;;;;5020054;28;20121;-79
2023/06/15 07:14:06;;;;;;;15.57;7.43;;;23.40;69.90;;;;;;5018950;28;20052;-79
2023/06/15 07:16:31;;;;;;;16.15;5.80;;;23.40;68.30;;;;;;5019169;28;20538;-79
2023/06/15 07:18:58;;;;;;;10.63;6.18;;;23.50;67.20;;;;;;5019009;28;20034;-79
2023/06/15 07:21:23;;;;;;;12.15;5.85;;;23.60;66.70;;;;;;5017397;28;20091;-79
2023/06/15 07:23:49;;;;;;;12.07;6.47;;;23.70;66.40;;;;;;5019408;28;20029;-80
2023/06/15 07:26:15;;;;;;;17.98;5.70;;;23.80;66.70;;;;;;5033702;28;20025;-81
2023/06/15 07:28:40;;;;;;;20.20;10.10;;;23.90;65.90;;;;;;5018897;28;20861;-79
2023/06/15 07:31:06;;;;;;;829.75;242.07;;;24.00;65.20;;;;;;5013680;28;20022;-79
2023/06/15 07:33:32;;;;;;;7.18;5.53;;;24.10;64.60;;;;;;5013284;28;20046;-79
2023/06/15 07:35:57;;;;;;;9.13;5.13;;;24.20;63.70;;;;;;5013549;28;20117;-79
2023/06/15 07:38:23;;;;;;;11.98;5.78;;;24.30;63.00;;;;;;5017026;28;20033;-79
2023/06/15 07:40:51;;;;;;;11.02;4.95;;;24.40;62.90;;;;;;5017636;28;20041;-78
2023/06/15 07:43:17;;;;;;;13.00;4.78;;;24.60;61.90;;;;;;5034208;28;20155;-79
2023/06/15 07:45:45;;;;;;;13.30;4.57;;;24.90;61.30;;;;;;5035248;28;20438;-79
2023/06/15 07:48:13;;;;;;;7.53;4.35;;;25.10;61.00;;;;;;5015045;28;20028;-79
2023/06/15 07:50:41;;;;;;;10.63;4.95;;;25.30;59.10;;;;;;5015658;28;20718;-78
2023/06/15 07:53:06;;;;;;;5.30;4.50;;;25.40;59.40;;;;;;5030392;28;20025;-80
2023/06/15 07:55:32;;;;;;;8.07;4.45;;;25.50;59.30;;;;;;5015684;28;20030;-77
2023/06/15 07:57:58;;;;;;;79.05;38.72;;;25.60;58.10;;;;;;5013113;28;20093;-75
2023/06/15 08:00:26;;;;;;;7.50;3.60;;;25.80;54.90;;;;;;5012798;28;20101;-75
2023/06/15 08:02:54;;;;;;;10.35;3.65;;;26.00;54.40;;;;;;5016726;28;20021;-76
2023/06/15 08:05:20;;;;;;;17.20;4.20;;;26.20;54.10;;;;;;5017245;28;20040;-75
2023/06/15 08:07:45;;;;;;;7.72;3.78;;;26.40;54.40;;;;;;5029724;28;20021;-75
2023/06/15 08:10:13;;;;;;;13.10;4.20;;;26.60;54.40;;;;;;5015968;28;20022;-75
2023/06/15 08:12:40;;;;;;;19.92;8.13;;;26.70;54.50;;;;;;5009888;28;20482;-78
2023/06/15 08:15:06;;;;;;;8.43;4.50;;;26.90;54.20;;;;;;5013714;28;20036;-78
2023/06/15 08:17:32;;;;;;;7.47;4.57;;;27.00;54.20;;;;;;5013060;28;20685;-77
2023/06/15 08:19:57;;;;;;;8.55;4.47;;;27.40;54.70;;;;;;5014594;28;20037;-76
2023/06/15 08:22:23;;;;;;;7.30;4.53;;;27.60;53.70;;;;;;5010778;28;20033;-79
2023/06/15 08:24:49;;;;;;;12.05;4.43;;;27.80;52.90;;;;;;5014373;28;20025;-77
2023/06/15 08:27:14;;;;;;;5.88;3.72;;;27.90;52.60;;;;;;5014910;28;20096;-78
2023/06/15 08:29:44;;;;;;;10.43;4.88;;;28.30;52.30;;;;;;5012876;28;20477;-78
2023/06/15 08:32:13;;;;;;;7.75;4.05;;;28.80;52.20;;;;;;5013160;28;20562;-78
2023/06/15 08:34:43;;;;;;;614.90;230.90;;;29.10;51.20;;;;;;5016423;28;20029;-75
2023/06/15 08:37:11;;;;;;;9.32;4.07;;;29.30;50.20;;;;;;5011382;28;20025;-77
2023/06/15 08:39:39;;;;;;;7.22;4.25;;;29.30;50.90;;;;;;5013332;28;20041;-78
2023/06/15 08:42:06;;;;;;;9.18;3.72;;;29.40;49.60;;;;;;5013530;28;20030;-77
2023/06/15 08:44:36;;;;;;;4.72;3.83;;;29.80;48.90;;;;;;5012923;28;20039;-78
2023/06/15 08:47:03;;;;;;;8.30;4.28;;;30.00;48.10;;;;;;5012948;28;20033;-79
2023/06/15 08:49:32;;;;;;;6.75;3.63;;;30.20;47.90;;;;;;5013632;28;20060;-80
2023/06/15 08:51:58;;;;;;;5.47;3.83;;;30.30;47.70;;;;;;5010049;28;20528;-80
2023/06/15 08:54:27;;;;;;;8.55;4.35;;;30.40;46.80;;;;;;5012708;28;20026;-80
2023/06/15 08:56:54;;;;;;;4.45;3.67;;;30.40;47.10;;;;;;5017127;28;20032;-81
2023/06/15 08:59:21;;;;;;;6.07;3.97;;;30.20;46.60;;;;;;5016814;28;20096;-81
2023/06/15 09:01:47;;;;;;;9.07;3.90;;;30.60;46.30;;;;;;5015186;28;20017;-81
2023/06/15 09:04:15;;;;;;;8.75;3.63;;;30.90;46.00;;;;;;5013796;28;20041;-81
2023/06/15 09:06:41;;;;;;;5.35;3.53;;;31.00;45.90;;;;;;5014780;28;20032;-79
2023/06/15 09:09:07;;;;;;;4.05;3.20;;;31.40;46.30;;;;;;5014137;28;20054;-81
2023/06/15 09:11:41;;;;;;;4.68;3.50;;;31.60;45.40;;;;;;5011131;28;20021;-80
2023/06/15 09:14:09;;;;;;;6.25;3.55;;;31.70;44.10;;;;;;5012365;28;20033;-81
2023/06/15 09:16:39;;;;;;;9.38;3.25;;;31.50;45.30;;;;;;5013666;28;20093;-80
2023/06/15 09:19:11;;;;;;;7.40;3.63;;;31.50;43.80;;;;;;5014691;28;20183;-79
2023/06/15 09:21:41;;;;;;;13.55;3.70;;;31.70;43.60;;;;;;5012967;28;20041;-79
2023/06/15 09:24:07;;;;;;;7.68;3.55;;;32.00;43.30;;;;;;5012570;28;20104;-79
2023/06/15 09:26:33;;;;;;;6.53;3.80;;;32.20;42.80;;;;;;5027238;28;20057;-79
2023/06/15 09:28:59;;;;;;;5.43;3.20;;;32.30;42.50;;;;;;5013306;28;20122;-79
2023/06/15 09:31:32;;;;;;;4.15;3.78;;;31.80;42.50;;;;;;5015121;28;20527;-80
2023/06/15 09:34:01;;;;;;;16.75;6.07;;;31.80;42.30;;;;;;5014052;28;20029;-79
2023/06/15 09:36:26;;;;;;;7.53;3.53;;;31.20;43.10;;;;;;5010783;28;20026;-79
2023/06/15 09:38:55;;;;;;;5.13;3.75;;;30.60;43.70;;;;;;5014253;28;20040;-80
2023/06/15 09:41:20;;;;;;;7.47;3.53;;;30.30;44.60;;;;;;5016518;28;20108;-80
2023/06/15 09:43:49;;;;;;;7.63;3.42;;;30.10;44.90;;;;;;5024668;28;20125;-80
2023/06/15 09:46:16;;;;;;;8.40;3.80;;;29.90;45.20;;;;;;5023422;28;20091;-80
2023/06/15 09:48:44;;;;;;;7.50;3.30;;;29.90;45.80;;;;;;5011396;28;20029;-80
2023/06/15 09:51:10;;;;;;;4.05;3.50;;;30.30;45.30;;;;;;5012091;28;20481;-80
2023/06/15 09:53:37;;;;;;;11.73;4.43;;;30.30;44.90;;;;;;5014230;28;20029;-80
2023/06/15 09:56:03;;;;;;;3.70;3.40;;;29.90;44.70;;;;;;5013061;28;20056;-80
2023/06/15 09:58:29;;;;;;;5.03;3.58;;;30.00;44.90;;;;;;5014066;28;20099;-80
2023/06/15 10:01:03;;;;;;;3.63;3.30;;;30.40;44.90;;;;;;5015276;28;20021;-80
2023/06/15 10:03:31;;;;;;;4.07;3.72;;;31.10;44.40;;;;;;5015262;28;20014;-79
2023/06/15 10:06:14;;;;;;;6.88;5.68;;;31.90;42.70;;;;;;5035061;28;20076;-80
2023/06/15 10:08:41;;;;;;;4.82;3.63;;;32.40;43.00;;;;;;5018522;28;20029;-80
2023/06/15 10:11:09;;;;;;;6.00;3.75;;;32.30;42.80;;;;;;5014634;28;20010;-79
2023/06/15 10:13:51;;;;;;;211.63;132.93;;;31.60;43.60;;;;;;5013568;28;20468;-80
2023/06/15 10:16:20;;;;;;;7.90;3.30;;;31.00;44.20;;;;;;5013460;28;20584;-79
2023/06/15 10:18:52;;;;;;;5.13;3.50;;;30.50;43.30;;;;;;5012153;28;20029;-81
2023/06/15 10:21:26;;;;;;;8.05;3.28;;;30.30;43.50;;;;;;5006577;28;20095;-80
2023/06/15 10:23:54;;;;;;;8.07;3.38;;;29.90;43.70;;;;;;5012897;28;20300;-80
2023/06/15 10:26:21;;;;;;;5.03;4.00;;;31.00;44.20;;;;;;5011645;28;20017;-81
2023/06/15 10:28:51;;;;;;;3.67;3.38;;;32.30;43.30;;;;;;5013044;28;20036;-80
2023/06/15 10:31:30;;;;;;;3.72;3.28;;;33.20;40.60;;;;;;5013492;28;20481;-78
2023/06/15 10:34:13;;;;;;;10.25;3.58;;;33.10;40.80;;;;;;5012833;28;20026;-79
2023/06/15 10:36:48;;;;;;;4.53;3.35;;;32.40;40.90;;;;;;5027482;28;20018;-80
2023/06/15 10:39:31;;;;;;;6.32;3.67;;;33.00;40.80;;;;;;5151544;23;21153;-81
2023/06/15 10:41:57;;;;;;;5.22;3.55;;;33.60;39.70;;;;;;5010906;28;20136;-79
2023/06/15 10:44:31;;;;;;;4.22;3.50;;;32.50;40.40;;;;;;5014618;28;20092;-79
2023/06/15 10:47:12;;;;;;;3.65;2.72;;;31.80;41.00;;;;;;5016591;28;20052;-81
2023/06/15 10:49:48;;;;;;;9.25;3.63;;;31.20;40.70;;;;;;5021076;28;20765;-79
2023/06/15 10:52:14;;;;;;;149.88;78.28;;;30.70;40.90;;;;;;5006668;28;20045;-78
2023/06/15 10:54:40;;;;;;;8.40;3.30;;;30.00;41.90;;;;;;5008960;28;20117;-79
2023/06/15 10:57:07;;;;;;;3.88;3.30;;;30.10;42.90;;;;;;5005381;28;20316;-80
2023/06/15 10:59:41;;;;;;;6.13;3.90;;;31.30;42.50;;;;;;5004332;28;20041;-80
2023/06/15 11:02:28;;;;;;;3.50;3.20;;;32.70;41.30;;;;;;5001945;28;20025;-80
2023/06/15 11:05:03;;;;;;;4.97;3.40;;;33.60;39.90;;;;;;5005173;28;20030;-80
2023/06/15 11:07:33;;;;;;;9.40;3.90;;;34.10;39.30;;;;;;5004465;28;20034;-80
2023/06/15 11:10:22;;;;;;;5.22;4.07;;;34.30;39.20;;;;;;4988917;28;20167;-79
2023/06/15 11:12:59;;;;;;;7.30;4.20;;;34.70;39.30;;;;;;4996354;28;20026;-80
2023/06/15 11:15:34;;;;;;;9.50;3.70;;;34.60;40.20;;;;;;4992506;28;20060;-80
2023/06/15 11:18:00;;;;;;;5.38;3.30;;;34.60;39.20;;;;;;4993122;28;20026;-80
2023/06/15 11:20:38;;;;;;;4.53;3.30;;;34.90;38.40;;;;;;4991726;28;20034;-80
2023/06/15 11:23:11;;;;;;;8.45;3.40;;;34.50;38.40;;;;;;4994738;28;20029;-80
2023/06/15 11:25:47;;;;;;;7.75;3.92;;;33.70;38.10;;;;;;4987171;28;20101;-80
2023/06/15 11:28:30;;;;;;;6.13;3.60;;;32.90;39.00;;;;;;4996713;28;20026;-80
2023/06/15 11:30:58;;;;;;;3.85;3.33;;;32.30;39.10;;;;;;4995799;28;20104;-80
2023/06/15 11:33:31;;;;;;;5.03;3.70;;;31.80;40.00;;;;;;4995102;28;20383;-78
2023/06/15 11:36:03;;;;;;;8.73;3.40;;;31.40;40.20;;;;;;4994179;28;20072;-80
2023/06/15 11:38:29;;;;;;;7.88;3.53;;;31.10;40.70;;;;;;4994932;28;20401;-80
2023/06/15 11:40:59;;;;;;;8.43;3.30;;;30.60;42.10;;;;;;5006276;28;20034;-80
2023/06/15 11:43:32;;;;;;;4.60;3.60;;;31.00;42.90;;;;;;4997932;28;20042;-80
2023/06/15 11:45:58;;;;;;;3.90;3.60;;;31.80;40.80;;;;;;4995098;28;20766;-80
2023/06/15 11:48:26;;;;;;;5.55;3.80;;;31.80;40.50;;;;;;4999217;28;20018;-79
2023/06/15 11:50:54;;;;;;;8.13;3.95;;;31.80;40.70;;;;;;4991719;28;20121;-80
2023/06/15 11:53:20;;;;;;;7.75;3.63;;;32.30;40.60;;;;;;4999275;28;20040;-80
2023/06/15 11:55:46;;;;;;;3.63;3.40;;;32.90;38.70;;;;;;4993505;28;20018;-80
2023/06/15 11:58:12;;;;;;;7.43;3.63;;;33.20;37.90;;;;;;4991287;28;20030;-80
2023/06/15 12:00:40;;;;;;;3.80;3.50;;;33.70;37.70;;;;;;4995995;28;20661;-80
2023/06/15 12:03:11;;;;;;;5.32;3.65;;;34.00;36.50;;;;;;4988390;28;20030;-80
2023/06/15 12:05:37;;;;;;;8.35;3.92;;;34.00;36.50;;;;;;5015174;28;20695;-81
2023/06/15 12:08:04;;;;;;;4.30;3.13;;;34.10;36.80;;;;;;5024028;28;20014;-81
2023/06/15 12:10:31;;;;;;;3.72;3.42;;;34.30;36.70;;;;;;5018714;28;20094;-81
2023/06/15 12:12:58;;;;;;;8.15;3.58;;;34.40;36.20;;;;;;5014254;28;20041;-81
2023/06/15 12:15:24;;;;;;;7.28;3.17;;;34.60;36.20;;;;;;4996374;28;20035;-82
2023/06/15 12:17:53;;;;;;;4.85;3.85;;;35.00;37.30;;;;;;4996419;28;20033;-82
2023/06/15 12:20:18;;;;;;;6.20;3.47;;;34.70;36.10;;;;;;5011496;28;20045;-81
2023/06/15 12:22:46;;;;;;;6.78;3.35;;;34.00;37.50;;;;;;4995120;28;20038;-82
2023/06/15 12:25:13;;;;;;;9.23;3.72;;;33.40;37.90;;;;;;5001348;28;20037;-81
2023/06/15 12:27:46;;;;;;;14.70;4.93;;;33.00;38.00;;;;;;4999477;28;20462;-81
2023/06/15 12:30:16;;;;;;;8.15;3.70;;;33.40;38.30;;;;;;4992596;28;20158;-82
2023/06/15 12:32:49;;;;;;;3.75;3.45;;;33.70;37.70;;;;;;4991986;28;20098;-82
2023/06/15 12:35:38;;;;;;;4.47;4.07;;;34.00;38.00;;;;;;4991816;28;20038;-81
2023/06/15 12:38:07;;;;;;;5.57;4.13;;;34.10;36.90;;;;;;4999891;28;20030;-82
2023/06/15 12:40:43;;;;;;;4.63;3.80;;;34.60;37.40;;;;;;4992123;28;20120;-81
2023/06/15 12:43:09;;;;;;;6.70;3.67;;;34.70;36.80;;;;;;4998067;28;20033;-80
2023/06/15 12:45:36;;;;;;;8.07;4.00;;;34.30;37.00;;;;;;4995390;28;20042;-80